Time;durP1;ratioP1;P1;durP2;ratioP2;P2;SDS_P1;SDS_P2;PMS_P1;PMS_P2;Temp;Humidity;BMP_temperature;BMP_pressure;BME280_temperature;BME280_humidity;BME280_pressure;Samples;Min_cycle;Max_cycle;Signal;HPM_P1;HPM_P2
2022/03/21 00:01:00;;;;;;;88.32;56.25;;;;;;;;;;5016931;28;20083;-79
2022/03/21 00:03:28;;;;;;;95.65;59.13;;;;;;;;;;5017463;28;20179;-81
2022/03/21 00:05:58;;;;;;;93.38;58.38;;;;;;;;;;4986147;28;20130;-79
2022/03/21 00:08:24;;;;;;;88.97;57.97;;;;;;;;;;5019279;28;20116;-79
2022/03/21 00:10:49;;;;;;;86.05;56.75;;;;;;;;;;5004269;28;20743;-80
2022/03/21 00:13:17;;;;;;;92.55;60.08;;;;;;;;;;5020925;28;20025;-79
2022/03/21 00:15:46;;;;;;;89.03;55.70;;;;;;;;;;5022994;28;20029;-79
2022/03/21 00:18:14;;;;;;;88.15;56.03;;;;;;;;;;5021676;28;20152;-79
2022/03/21 00:20:45;;;;;;;86.18;53.80;;;;;;;;;;5020010;28;20039;-79
2022/03/21 00:23:10;;;;;;;89.18;58.38;;;;;;;;;;5003518;28;20445;-79
2022/03/21 00:25:38;;;;;;;85.45;55.10;;;;;;;;;;5021135;28;20044;-79
2022/03/21 00:28:04;;;;;;;82.55;53.75;;;;;;;;;;5016937;28;20029;-80
2022/03/21 00:30:29;;;;;;;84.00;52.13;;;;;;;;;;5004143;28;20041;-80
2022/03/21 00:32:55;;;;;;;86.00;52.20;;;;;;;;;;5016359;28;20459;-80
2022/03/21 00:35:20;;;;;;;80.90;52.95;;;;;;;;;;5017495;28;20131;-81
2022/03/21 00:37:48;;;;;;;88.47;54.45;;;;;;;;;;5017473;28;20128;-80
2022/03/21 00:40:16;;;;;;;89.07;54.25;;;;;;;;;;5016953;28;20056;-80
2022/03/21 00:42:43;;;;;;;94.82;56.25;;;;;;;;;;5016415;28;20168;-80
2022/03/21 00:45:15;;;;;;;102.05;59.95;;;;;;;;;;5017216;28;20037;-80
2022/03/21 00:47:46;;;;;;;127.70;70.25;;;;;;;;;;4999165;28;21971;-80
2022/03/21 00:50:15;;;;;;;114.50;63.33;;;;;;;;;;5017529;28;20040;-80
2022/03/21 00:52:46;;;;;;;97.82;59.13;;;;;;;;;;5003282;28;20060;-79
2022/03/21 00:55:13;;;;;;;108.90;61.13;;;;;;;;;;5016177;28;20030;-80
2022/03/21 00:57:40;;;;;;;98.55;58.03;;;;;;;;;;5017463;28;20571;-80
2022/03/21 01:00:09;;;;;;;94.85;57.65;;;;;;;;;;5005417;28;20047;-80
2022/03/21 01:02:35;;;;;;;102.90;59.13;;;;;;;;;;5017174;28;20075;-80
2022/03/21 01:05:01;;;;;;;118.65;66.07;;;;;;;;;;5015145;28;20045;-81
2022/03/21 01:07:26;;;;;;;111.70;64.93;;;;;;;;;;4999474;28;20508;-80
2022/03/21 01:09:51;;;;;;;109.53;63.55;;;;;;;;;;5001061;28;20560;-80
2022/03/21 01:12:17;;;;;;;113.97;62.42;;;;;;;;;;4998617;28;20426;-80
2022/03/21 01:14:44;;;;;;;104.90;61.45;;;;;;;;;;5017232;28;20030;-80
2022/03/21 01:17:12;;;;;;;99.90;58.35;;;;;;;;;;5016324;28;20026;-80
2022/03/21 01:19:39;;;;;;;94.00;56.25;;;;;;;;;;5017133;28;20037;-80
2022/03/21 01:22:07;;;;;;;94.60;56.60;;;;;;;;;;5003706;28;20018;-80
2022/03/21 01:24:37;;;;;;;101.90;59.22;;;;;;;;;;4998613;28;20516;-80
2022/03/21 01:27:03;;;;;;;102.90;59.75;;;;;;;;;;5016156;28;20690;-79
2022/03/21 01:29:33;;;;;;;104.93;59.65;;;;;;;;;;5001591;28;20047;-79
2022/03/21 01:31:59;;;;;;;105.35;59.17;;;;;;;;;;4996919;28;20033;-80
2022/03/21 01:34:24;;;;;;;111.60;63.53;;;;;;;;;;4998441;28;20110;-79
2022/03/21 01:36:52;;;;;;;112.68;64.35;;;;;;;;;;5016591;28;20074;-80
2022/03/21 01:39:20;;;;;;;101.32;58.65;;;;;;;;;;5005494;28;20044;-80
2022/03/21 01:41:46;;;;;;;101.47;58.40;;;;;;;;;;5016694;28;20136;-80
2022/03/21 01:44:14;;;;;;;95.75;57.88;;;;;;;;;;5015013;28;20028;-80
2022/03/21 01:46:40;;;;;;;100.43;56.80;;;;;;;;;;5016434;28;20491;-79
2022/03/21 01:49:07;;;;;;;94.80;55.60;;;;;;;;;;5016314;28;20051;-80
2022/03/21 01:51:35;;;;;;;95.72;56.83;;;;;;;;;;5016540;28;20155;-80
2022/03/21 01:56:47;;;;;;;79.15;52.22;;;;;;;;;;5016260;28;20040;-80
2022/03/21 01:59:19;;;;;;;82.95;51.85;;;;;;;;;;5015994;28;20702;-78
2022/03/21 02:01:47;;;;;;;84.80;52.20;;;;;;;;;;5002146;28;20056;-78
2022/03/21 02:04:13;;;;;;;85.95;53.08;;;;;;;;;;5003899;28;20052;-78
2022/03/21 02:06:45;;;;;;;83.47;52.53;;;;;;;;;;5001911;28;20041;-77
2022/03/21 02:09:13;;;;;;;86.85;52.65;;;;;;;;;;5021824;28;20305;-78
2022/03/21 02:11:41;;;;;;;80.80;49.58;;;;;;;;;;5005943;28;20507;-79
2022/03/21 02:14:07;;;;;;;76.75;49.90;;;;;;;;;;5022325;28;20025;-78
2022/03/21 02:16:35;;;;;;;81.10;49.38;;;;;;;;;;5003724;28;20049;-79
2022/03/21 02:19:06;;;;;;;75.68;47.17;;;;;;;;;;5019090;28;20025;-79
2022/03/21 02:21:43;;;;;;;76.72;48.67;;;;;;;;;;5004301;28;20051;-78
2022/03/21 02:24:22;;;;;;;74.38;46.13;;;;;;;;;;5019694;28;20051;-79
2022/03/21 02:26:47;;;;;;;73.15;47.60;;;;;;;;;;5019644;28;20060;-71
2022/03/21 02:29:14;;;;;;;79.13;48.88;;;;;;;;;;5018708;28;20782;-71
2022/03/21 02:31:40;;;;;;;72.85;46.28;;;;;;;;;;5018671;28;20171;-72
2022/03/21 02:34:06;;;;;;;71.85;46.28;;;;;;;;;;5001049;28;20029;-71
2022/03/21 02:36:32;;;;;;;80.47;46.83;;;;;;;;;;5000096;28;20114;-71
2022/03/21 02:38:59;;;;;;;72.57;45.10;;;;;;;;;;5019206;28;20837;-71
2022/03/21 02:41:25;;;;;;;69.82;45.40;;;;;;;;;;5019520;28;20163;-71
2022/03/21 02:43:57;;;;;;;73.70;45.00;;;;;;;;;;5018702;28;20364;-71
2022/03/21 02:46:23;;;;;;;81.72;48.15;;;;;;;;;;5018652;28;20170;-71
2022/03/21 02:48:49;;;;;;;78.80;48.17;;;;;;;;;;5018869;28;20381;-71
2022/03/21 02:51:15;;;;;;;71.82;45.85;;;;;;;;;;5018985;28;20048;-71
2022/03/21 02:53:41;;;;;;;73.47;45.83;;;;;;;;;;5003164;28;20029;-71
2022/03/21 02:56:06;;;;;;;73.63;46.30;;;;;;;;;;4990004;28;20029;-72
2022/03/21 02:58:34;;;;;;;76.97;48.28;;;;;;;;;;5016326;28;20135;-71
2022/03/21 03:01:10;;;;;;;78.75;48.67;;;;;;;;;;4997428;28;20710;-71
2022/03/21 03:03:36;;;;;;;75.03;46.20;;;;;;;;;;5001805;28;20073;-71
2022/03/21 03:06:04;;;;;;;69.13;45.58;;;;;;;;;;4998922;28;20120;-71
2022/03/21 03:08:30;;;;;;;69.97;45.35;;;;;;;;;;4982768;28;20044;-71
2022/03/21 03:10:55;;;;;;;74.32;45.05;;;;;;;;;;4998383;28;20037;-71
2022/03/21 03:13:22;;;;;;;70.40;44.42;;;;;;;;;;4997980;28;20132;-71
2022/03/21 03:15:50;;;;;;;71.38;43.53;;;;;;;;;;4998662;28;20112;-71
2022/03/21 03:18:17;;;;;;;66.68;43.28;;;;;;;;;;4997907;28;20508;-71
2022/03/21 03:20:49;;;;;;;70.03;44.50;;;;;;;;;;4997206;28;20718;-71
2022/03/21 03:23:15;;;;;;;67.57;44.00;;;;;;;;;;4997890;28;20030;-72
2022/03/21 03:25:40;;;;;;;67.78;43.15;;;;;;;;;;4999062;28;20107;-71
2022/03/21 03:28:08;;;;;;;73.60;45.50;;;;;;;;;;4997559;28;20037;-71
2022/03/21 03:30:34;;;;;;;69.97;44.85;;;;;;;;;;4996272;28;20028;-71
2022/03/21 03:33:02;;;;;;;65.15;42.60;;;;;;;;;;4982932;28;20030;-71
2022/03/21 03:35:31;;;;;;;68.25;43.72;;;;;;;;;;4999069;28;20061;-70
2022/03/21 03:37:56;;;;;;;69.82;44.17;;;;;;;;;;4982245;28;20141;-71
2022/03/21 03:40:22;;;;;;;67.35;42.42;;;;;;;;;;4997047;28;20025;-70
2022/03/21 03:42:50;;;;;;;66.93;43.75;;;;;;;;;;5002329;28;20496;-71
2022/03/21 03:45:16;;;;;;;65.90;43.22;;;;;;;;;;4997951;28;20042;-71
2022/03/21 03:47:42;;;;;;;65.53;41.70;;;;;;;;;;4997517;28;21852;-71
2022/03/21 03:50:10;;;;;;;67.45;43.42;;;;;;;;;;4997576;28;20026;-70
2022/03/21 03:52:37;;;;;;;69.50;42.85;;;;;;;;;;4997827;28;20034;-70
2022/03/21 03:55:05;;;;;;;65.47;41.63;;;;;;;;;;5013282;28;20034;-70
2022/03/21 03:57:33;;;;;;;64.78;42.47;;;;;;;;;;4997873;28;20042;-71
2022/03/21 03:59:58;;;;;;;71.25;43.15;;;;;;;;;;4995849;28;20061;-70
2022/03/21 04:02:23;;;;;;;67.07;41.65;;;;;;;;;;4997073;28;20116;-71
2022/03/21 04:04:49;;;;;;;64.68;40.55;;;;;;;;;;4997257;28;20029;-70
2022/03/21 04:07:14;;;;;;;63.97;42.45;;;;;;;;;;5003506;28;20154;-70
2022/03/21 04:09:40;;;;;;;69.80;41.50;;;;;;;;;;4996594;28;20270;-71
2022/03/21 04:12:08;;;;;;;68.05;42.03;;;;;;;;;;5001439;28;20025;-70
2022/03/21 04:14:35;;;;;;;79.95;43.92;;;;;;;;;;4995323;28;20029;-71
2022/03/21 04:17:01;;;;;;;75.40;44.17;;;;;;;;;;4998098;28;20036;-72
2022/03/21 04:19:28;;;;;;;69.57;42.67;;;;;;;;;;4997019;28;20073;-72
2022/03/21 04:21:54;;;;;;;64.32;41.90;;;;;;;;;;5001971;28;20136;-71
2022/03/21 04:24:19;;;;;;;64.72;42.88;;;;;;;;;;5011119;28;20551;-71
2022/03/21 04:26:44;;;;;;;68.10;44.28;;;;;;;;;;4996477;28;20040;-71
2022/03/21 04:29:10;;;;;;;70.07;43.35;;;;;;;;;;4997580;28;20033;-71
2022/03/21 04:31:35;;;;;;;64.15;42.38;;;;;;;;;;4995545;28;20737;-71
2022/03/21 04:34:01;;;;;;;69.30;45.50;;;;;;;;;;5012453;28;20049;-71
2022/03/21 04:36:28;;;;;;;66.78;45.85;;;;;;;;;;4996720;28;20061;-70
2022/03/21 04:38:53;;;;;;;73.35;46.70;;;;;;;;;;4996964;28;20033;-69
2022/03/21 04:41:18;;;;;;;78.97;48.80;;;;;;;;;;4996669;28;20037;-71
2022/03/21 04:43:49;;;;;;;75.57;46.53;;;;;;;;;;4995383;28;20037;-70
2022/03/21 04:46:15;;;;;;;76.18;48.78;;;;;;;;;;4995666;28;20519;-70
2022/03/21 04:48:42;;;;;;;77.13;48.50;;;;;;;;;;4997098;28;20045;-70
2022/03/21 04:51:08;;;;;;;74.55;47.10;;;;;;;;;;4996103;28;20718;-71
2022/03/21 04:53:41;;;;;;;73.68;47.63;;;;;;;;;;4994813;28;20101;-71
2022/03/21 04:56:07;;;;;;;82.82;49.95;;;;;;;;;;4997195;28;20021;-71
2022/03/21 04:58:35;;;;;;;86.30;50.83;;;;;;;;;;4996117;28;20018;-70
2022/03/21 05:01:02;;;;;;;79.38;49.03;;;;;;;;;;5013491;28;20144;-71
2022/03/21 05:03:28;;;;;;;78.05;48.60;;;;;;;;;;4998520;28;20037;-71
2022/03/21 05:05:53;;;;;;;75.63;47.65;;;;;;;;;;4997943;28;20387;-70
2022/03/21 05:08:22;;;;;;;82.28;50.33;;;;;;;;;;5015468;28;20156;-78
2022/03/21 05:10:48;;;;;;;82.28;48.75;;;;;;;;;;4983508;28;20428;-78
2022/03/21 05:13:14;;;;;;;77.68;49.45;;;;;;;;;;5001177;28;20303;-78
2022/03/21 05:15:39;;;;;;;77.70;48.70;;;;;;;;;;5014939;28;20307;-78
2022/03/21 05:18:05;;;;;;;78.38;48.08;;;;;;;;;;4998892;28;20140;-78
2022/03/21 05:20:30;;;;;;;76.10;47.45;;;;;;;;;;5016040;28;20044;-78
2022/03/21 05:31:13;;;;;;;77.80;46.67;;;;;;;;;;5015904;28;20043;-78
2022/03/21 05:36:30;;;;;;;74.22;48.53;;;;;;;;;;5019935;28;20023;-71
2022/03/21 05:38:56;;;;;;;77.28;48.70;;;;;;;;;;5018182;28;20060;-71
2022/03/21 05:41:21;;;;;;;83.13;51.08;;;;;;;;;;5020129;28;20179;-71
2022/03/21 05:43:52;;;;;;;86.20;50.53;;;;;;;;;;5001578;28;20029;-70
2022/03/21 05:46:18;;;;;;;94.63;51.60;;;;;;;;;;5002012;28;20311;-70
2022/03/21 05:48:58;;;;;;;82.72;50.88;;;;;;;;;;5017263;28;20029;-71
2022/03/21 05:51:28;;;;;;;84.20;51.85;;;;;;;;;;5019456;28;20041;-71
2022/03/21 05:53:54;;;;;;;84.70;51.67;;;;;;;;;;5019574;28;20027;-80
2022/03/21 05:56:21;;;;;;;77.70;48.95;;;;;;;;;;5019977;28;20063;-79
2022/03/21 05:58:47;;;;;;;82.35;52.97;;;;;;;;;;5018474;28;20033;-79
2022/03/21 06:01:14;;;;;;;85.97;54.28;;;;;;;;;;5001554;28;20236;-78
2022/03/21 06:03:40;;;;;;;88.03;53.03;;;;;;;;;;5019955;28;20118;-80
2022/03/21 06:06:05;;;;;;;83.10;52.10;;;;;;;;;;5019910;28;20477;-78
2022/03/21 06:08:31;;;;;;;82.85;52.05;;;;;;;;;;5019613;28;20053;-79
2022/03/21 06:11:08;;;;;;;85.93;52.08;;;;;;;;;;5018184;28;20033;-79
2022/03/21 06:13:39;;;;;;;87.07;50.97;;;;;;;;;;5007249;28;20136;-79
2022/03/21 06:16:07;;;;;;;79.40;50.42;;;;;;;;;;5019125;28;20029;-80
2022/03/21 06:18:34;;;;;;;80.80;49.58;;;;;;;;;;5020914;28;20067;-79
2022/03/21 06:21:03;;;;;;;77.68;49.53;;;;;;;;;;5018459;28;20047;-79
2022/03/21 06:23:31;;;;;;;76.57;49.17;;;;;;;;;;5018354;28;20033;-78
2022/03/21 06:25:58;;;;;;;81.15;50.80;;;;;;;;;;5018714;28;20568;-79
2022/03/21 06:28:24;;;;;;;79.85;50.38;;;;;;;;;;5019066;28;20088;-78
2022/03/21 06:30:51;;;;;;;81.18;50.20;;;;;;;;;;5020462;28;20132;-80
2022/03/21 06:33:17;;;;;;;81.78;50.42;;;;;;;;;;4987539;28;20553;-80
2022/03/21 06:35:43;;;;;;;76.63;48.40;;;;;;;;;;5019677;28;20029;-80
2022/03/21 06:38:13;;;;;;;76.13;47.92;;;;;;;;;;5006735;28;20482;-81
2022/03/21 06:40:42;;;;;;;72.55;47.35;;;;;;;;;;5019671;28;20311;-84
2022/03/21 06:43:07;;;;;;;79.20;49.33;;;;;;;;;;5018714;28;20136;-81
2022/03/21 06:45:33;;;;;;;77.28;48.63;;;;;;;;;;5001668;28;20272;-81
2022/03/21 06:47:58;;;;;;;78.75;49.92;;;;;;;;;;5019285;28;20083;-81
2022/03/21 06:50:26;;;;;;;76.88;49.80;;;;;;;;;;5019541;28;20551;-82
2022/03/21 06:52:54;;;;;;;77.15;48.28;;;;;;;;;;5002380;28;20048;-82
2022/03/21 06:55:22;;;;;;;76.13;47.67;;;;;;;;;;5001564;28;20030;-82
2022/03/21 06:57:48;;;;;;;74.82;46.88;;;;;;;;;;5003917;28;20067;-83
2022/03/21 07:00:13;;;;;;;77.65;48.10;;;;;;;;;;4992822;28;20041;-82
2022/03/21 07:02:44;;;;;;;73.80;48.03;;;;;;;;;;5023150;28;20116;-81
2022/03/21 07:05:12;;;;;;;71.53;46.55;;;;;;;;;;5019638;28;20180;-79
2022/03/21 07:07:40;;;;;;;72.75;48.40;;;;;;;;;;5019544;28;20391;-79
2022/03/21 07:10:05;;;;;;;81.22;49.42;;;;;;;;;;5020983;28;20205;-79
2022/03/21 07:12:37;;;;;;;71.07;47.45;;;;;;;;;;5020497;28;20040;-79
2022/03/21 07:15:03;;;;;;;74.20;48.22;;;;;;;;;;5008021;28;20148;-81
2022/03/21 07:17:28;;;;;;;70.82;47.28;;;;;;;;;;5018499;28;20029;-80
2022/03/21 07:19:53;;;;;;;70.65;46.10;;;;;;;;;;5007733;28;20162;-79
2022/03/21 07:22:19;;;;;;;64.72;45.85;;;;;;;;;;5021593;28;20033;-79
2022/03/21 07:24:45;;;;;;;64.93;44.88;;;;;;;;;;5021147;28;20134;-78
2022/03/21 07:27:12;;;;;;;67.28;46.33;;;;;;;;;;5018813;28;20549;-78
2022/03/21 07:29:37;;;;;;;64.75;45.47;;;;;;;;;;5019152;28;20064;-79
2022/03/21 07:32:03;;;;;;;67.82;45.72;;;;;;;;;;5002888;28;20087;-79
2022/03/21 07:34:28;;;;;;;64.90;45.03;;;;;;;;;;4987134;28;20175;-80
2022/03/21 07:36:54;;;;;;;61.90;44.92;;;;;;;;;;5001472;28;20040;-80
2022/03/21 07:39:19;;;;;;;64.07;45.50;;;;;;;;;;4989841;28;20070;-80
2022/03/21 07:41:47;;;;;;;64.22;43.90;;;;;;;;;;5021406;28;20592;-80
2022/03/21 07:47:17;;;;;;;60.70;43.83;;;;;;;;;;5018243;28;20124;-81
2022/03/21 07:49:46;;;;;;;59.83;43.30;;;;;;;;;;5018856;28;20320;-78
2022/03/21 07:52:12;;;;;;;59.20;43.08;;;;;;;;;;5021706;28;20640;-78
2022/03/21 07:54:37;;;;;;;58.65;42.30;;;;;;;;;;5019403;28;20030;-79
2022/03/21 07:57:04;;;;;;;57.85;41.80;;;;;;;;;;5018788;28;22478;-80
2022/03/21 07:59:29;;;;;;;57.63;42.00;;;;;;;;;;5005017;28;20032;-81
2022/03/21 08:01:54;;;;;;;58.35;42.58;;;;;;;;;;5017204;28;20049;-79
2022/03/21 08:04:20;;;;;;;57.35;40.15;;;;;;;;;;4983913;28;20116;-79
2022/03/21 08:06:47;;;;;;;53.97;40.72;;;;;;;;;;5018748;28;20032;-79
2022/03/21 08:09:13;;;;;;;56.63;41.47;;;;;;;;;;5019671;28;20024;-81
2022/03/21 08:11:38;;;;;;;56.20;41.85;;;;;;;;;;5018494;28;20056;-80
2022/03/21 08:14:07;;;;;;;57.78;43.03;;;;;;;;;;5018613;28;20033;-79
2022/03/21 08:16:34;;;;;;;56.05;41.63;;;;;;;;;;5019925;28;21039;-79
2022/03/21 08:19:00;;;;;;;54.65;40.15;;;;;;;;;;5019873;28;20025;-79
2022/03/21 08:21:25;;;;;;;53.10;39.75;;;;;;;;;;5019767;28;20032;-77
2022/03/21 08:23:50;;;;;;;53.05;41.15;;;;;;;;;;5000489;28;20048;-74
2022/03/21 08:26:16;;;;;;;52.25;39.38;;;;;;;;;;5017839;28;20254;-73
2022/03/21 08:28:42;;;;;;;51.45;40.35;;;;;;;;;;5017769;28;20255;-73
2022/03/21 08:31:07;;;;;;;54.40;39.45;;;;;;;;;;5002452;28;20048;-72
2022/03/21 08:33:34;;;;;;;54.60;39.08;;;;;;;;;;5001308;28;20048;-73
2022/03/21 08:35:59;;;;;;;54.60;40.35;;;;;;;;;;5019180;28;20077;-74
2022/03/21 08:38:24;;;;;;;45.60;37.10;;;;;;;;;;5018838;28;20284;-73
2022/03/21 08:40:49;;;;;;;44.95;35.10;;;;;;;;;;5018330;28;20127;-74
2022/03/21 08:43:15;;;;;;;48.15;34.97;;;;;;;;;;4999527;28;20087;-74
2022/03/21 08:45:41;;;;;;;46.28;34.83;;;;;;;;;;5018163;28;20029;-73
2022/03/21 08:48:06;;;;;;;49.72;32.42;;;;;;;;;;5014700;28;20036;-72
2022/03/21 08:50:34;;;;;;;49.33;34.03;;;;;;;;;;5017556;28;20029;-72
2022/03/21 08:53:00;;;;;;;45.45;33.97;;;;;;;;;;5018371;28;20036;-74
2022/03/21 08:55:26;;;;;;;44.85;32.33;;;;;;;;;;5017559;28;20037;-74
2022/03/21 08:57:52;;;;;;;43.03;30.75;;;;;;;;;;5005786;28;20036;-72
2022/03/21 09:00:17;;;;;;;45.55;31.35;;;;;;;;;;5000604;28;20355;-75
2022/03/21 09:02:46;;;;;;;43.65;32.17;;;;;;;;;;5020199;28;20469;-72
2022/03/21 09:05:13;;;;;;;41.42;30.73;;;;;;;;;;5000333;28;20128;-71
2022/03/21 09:07:43;;;;;;;39.55;29.92;;;;;;;;;;5017308;28;20121;-72
2022/03/21 09:10:11;;;;;;;41.00;30.20;;;;;;;;;;5004906;28;20029;-71
2022/03/21 09:12:36;;;;;;;43.92;30.15;;;;;;;;;;4999847;28;20326;-73
2022/03/21 09:15:01;;;;;;;43.03;29.88;;;;;;;;;;5018277;28;20061;-73
2022/03/21 09:17:28;;;;;;;44.67;29.27;;;;;;;;;;5020102;28;20043;-73
2022/03/21 09:19:53;;;;;;;38.70;28.55;;;;;;;;;;5000672;28;20580;-75
2022/03/21 09:22:19;;;;;;;40.33;30.25;;;;;;;;;;5020284;28;20043;-78
2022/03/21 09:24:48;;;;;;;50.15;33.45;;;;;;;;;;5000017;28;20389;-77
2022/03/21 09:27:14;;;;;;;46.80;31.10;;;;;;;;;;5017371;28;20048;-76
2022/03/21 09:29:39;;;;;;;38.80;29.58;;;;;;;;;;5004107;28;20851;-78
2022/03/21 09:32:06;;;;;;;40.47;27.95;;;;;;;;;;5020041;28;20080;-77
2022/03/21 09:34:33;;;;;;;41.03;29.35;;;;;;;;;;5017765;28;20025;-72
2022/03/21 09:37:00;;;;;;;38.63;28.42;;;;;;;;;;5018941;28;20029;-72
2022/03/21 09:39:28;;;;;;;38.30;27.70;;;;;;;;;;4985060;28;20401;-71
2022/03/21 09:41:56;;;;;;;35.75;27.65;;;;;;;;;;5018092;28;20117;-72
2022/03/21 09:44:27;;;;;;;39.03;26.67;;;;;;;;;;5014549;28;22077;-73
2022/03/21 09:46:55;;;;;;;38.75;26.33;;;;;;;;;;5018500;28;20625;-72
2022/03/21 09:49:23;;;;;;;39.88;26.83;;;;;;;;;;5006857;28;20032;-71
2022/03/21 09:51:48;;;;;;;45.13;27.00;;;;;;;;;;5018690;28;20301;-71
2022/03/21 09:54:14;;;;;;;46.72;28.48;;;;;;;;;;5018213;28;20033;-72
2022/03/21 09:56:41;;;;;;;44.25;29.13;;;;;;;;;;5016659;28;20056;-71
2022/03/21 09:59:08;;;;;;;38.58;27.08;;;;;;;;;;5016048;28;20072;-75
2022/03/21 10:01:33;;;;;;;38.30;26.63;;;;;;;;;;4997989;28;20114;-72
2022/03/21 10:04:00;;;;;;;34.63;25.08;;;;;;;;;;5016576;28;20075;-73
2022/03/21 10:06:33;;;;;;;41.45;24.98;;;;;;;;;;5016359;28;20025;-72
2022/03/21 10:09:05;;;;;;;39.85;24.85;;;;;;;;;;5015799;28;20490;-70
2022/03/21 10:11:30;;;;;;;;;;;;;;;;;;5014414;28;20044;-71
2022/03/21 10:13:55;;;;;;;34.67;24.10;;;;;;;;;;5016423;28;20392;-71
2022/03/21 10:16:21;;;;;;;31.35;21.98;;;;;;;;;;5018962;28;20029;-71
2022/03/21 10:18:52;;;;;;;36.80;24.73;;;;;;;;;;5015920;28;20224;-71
2022/03/21 10:21:17;;;;;;;35.25;22.45;;;;;;;;;;5019258;28;20111;-71
2022/03/21 10:23:44;;;;;;;33.53;22.45;;;;;;;;;;4984542;28;20479;-71
2022/03/21 10:26:31;;;;;;;29.75;20.75;;;;;;;;;;5019890;28;20057;-72
2022/03/21 10:29:00;;;;;;;34.20;22.20;;;;;;;;;;5019727;28;20279;-69
2022/03/21 10:31:41;;;;;;;34.15;21.85;;;;;;;;;;5019785;28;20701;-71
2022/03/21 10:34:08;;;;;;;31.13;20.27;;;;;;;;;;5016741;28;20032;-70
2022/03/21 10:36:33;;;;;;;36.10;21.60;;;;;;;;;;5017773;28;20029;-70
2022/03/21 10:39:11;;;;;;;26.23;17.77;;;;;;;;;;5018815;28;20039;-69
2022/03/21 10:41:39;;;;;;;27.30;19.23;;;;;;;;;;5017167;28;20472;-71
2022/03/21 10:44:05;;;;;;;28.25;18.30;;;;;;;;;;5000870;28;20044;-71
2022/03/21 10:46:33;;;;;;;27.80;18.38;;;;;;;;;;5017322;28;20244;-71
2022/03/21 10:49:21;;;;;;;27.45;17.38;;;;;;;;;;5017525;28;20033;-72
2022/03/21 10:51:47;;;;;;;21.60;16.27;;;;;;;;;;5016613;28;20044;-71
2022/03/21 10:54:33;;;;;;;25.55;18.10;;;;;;;;;;4999983;28;20017;-71
2022/03/21 10:56:59;;;;;;;28.70;17.65;;;;;;;;;;5002679;28;20036;-70
2022/03/21 10:59:27;;;;;;;24.27;17.85;;;;;;;;;;4999690;28;20037;-70
2022/03/21 11:02:17;;;;;;;27.90;19.20;;;;;;;;;;5017754;28;20051;-73
2022/03/21 11:04:44;;;;;;;26.23;16.17;;;;;;;;;;5018979;28;20550;-70
2022/03/21 11:07:12;;;;;;;27.45;17.33;;;;;;;;;;5000983;28;20353;-71
2022/03/21 11:09:39;;;;;;;18.08;11.20;;;;;;;;;;5017415;28;20036;-71
2022/03/21 11:12:07;;;;;;;18.05;10.48;;;;;;;;;;5018909;28;20021;-71
2022/03/21 11:14:39;;;;;;;16.92;12.18;;;;;;;;;;5018422;28;20021;-71
2022/03/21 11:17:05;;;;;;;24.50;15.60;;;;;;;;;;5017540;28;20028;-76
2022/03/21 11:19:31;;;;;;;20.58;14.38;;;;;;;;;;5018240;28;20021;-74
2022/03/21 11:22:02;;;;;;;19.60;12.93;;;;;;;;;;5018231;28;20116;-74
2022/03/21 11:24:29;;;;;;;20.98;13.60;;;;;;;;;;5000362;28;20029;-75
2022/03/21 11:27:09;;;;;;;20.35;15.68;;;;;;;;;;5004833;28;20424;-75
2022/03/21 11:29:42;;;;;;;21.02;14.93;;;;;;;;;;5018604;28;20040;-75
2022/03/21 11:32:11;;;;;;;20.00;15.43;;;;;;;;;;5019264;28;20041;-75
2022/03/21 11:34:45;;;;;;;18.35;13.52;;;;;;;;;;5017391;28;20116;-74
2022/03/21 11:37:32;;;;;;;19.55;14.68;;;;;;;;;;5018237;28;20550;-74
2022/03/21 11:40:19;;;;;;;18.00;14.15;;;;;;;;;;5017123;28;20033;-74
2022/03/21 11:42:47;;;;;;;22.65;15.55;;;;;;;;;;5019660;28;20098;-72
2022/03/21 11:45:27;;;;;;;25.25;15.02;;;;;;;;;;5017189;28;20502;-75
2022/03/21 11:48:12;;;;;;;27.08;16.45;;;;;;;;;;5017545;28;20060;-75
2022/03/21 11:50:39;;;;;;;26.55;16.85;;;;;;;;;;5017497;28;20161;-69
2022/03/21 11:53:09;;;;;;;21.13;15.35;;;;;;;;;;4998946;28;20033;-71
2022/03/21 11:55:41;;;;;;;20.83;15.10;;;;;;;;;;5017995;28;20112;-70
2022/03/21 11:58:21;;;;;;;20.73;16.05;;;;;;;;;;5017526;28;20131;-73
2022/03/21 12:01:04;;;;;;;22.65;16.10;;;;;;;;;;5017594;28;20082;-73
2022/03/21 12:03:32;;;;;;;23.95;16.02;;;;;;;;;;5014730;28;20072;-71
2022/03/21 12:05:58;;;;;;;20.63;14.95;;;;;;;;;;5017255;28;20029;-71
2022/03/21 12:08:32;;;;;;;21.20;14.65;;;;;;;;;;5017569;28;20129;-69
2022/03/21 12:10:58;;;;;;;24.88;18.25;;;;;;;;;;5017536;28;20043;-70
2022/03/21 12:13:23;;;;;;;24.10;19.45;;;;;;;;;;4988630;28;20037;-71
2022/03/21 12:15:52;;;;;;;27.98;19.13;;;;;;;;;;5002504;28;20053;-72
2022/03/21 12:18:19;;;;;;;22.17;18.80;;;;;;;;;;5000294;28;20021;-71
2022/03/21 12:20:46;;;;;;;28.35;21.08;;;;;;;;;;4998644;28;20021;-70
2022/03/21 12:23:32;;;;;;;28.65;21.42;;;;;;;;;;5016814;28;20402;-72
2022/03/21 12:26:01;;;;;;;30.23;20.60;;;;;;;;;;4998111;28;20091;-71
2022/03/21 12:31:23;;;;;;;29.25;22.63;;;;;;;;;;5016584;28;20131;-71
2022/03/21 12:33:48;;;;;;;28.50;21.83;;;;;;;;;;5016782;28;20645;-72
2022/03/21 12:36:31;;;;;;;27.17;21.88;;;;;;;;;;5017215;28;20021;-72
2022/03/21 12:38:57;;;;;;;28.65;22.30;;;;;;;;;;5015709;28;20032;-73
2022/03/21 12:41:31;;;;;;;32.33;22.55;;;;;;;;;;5016673;28;20084;-72
2022/03/21 12:43:56;;;;;;;29.52;22.45;;;;;;;;;;5015274;28;20562;-69
2022/03/21 12:46:26;;;;;;;30.80;22.98;;;;;;;;;;5016667;28;20025;-71
2022/03/21 12:48:57;;;;;;;30.02;23.90;;;;;;;;;;4999014;28;20117;-73
2022/03/21 12:51:24;;;;;;;32.20;24.23;;;;;;;;;;5017331;28;20040;-74
2022/03/21 12:53:49;;;;;;;31.55;24.98;;;;;;;;;;5017274;28;20126;-74
2022/03/21 12:56:16;;;;;;;30.10;22.65;;;;;;;;;;4999443;28;20060;-71
2022/03/21 12:58:45;;;;;;;33.70;23.27;;;;;;;;;;5015522;28;21735;-70
2022/03/21 13:01:14;;;;;;;29.77;21.98;;;;;;;;;;5016509;28;20335;-71
2022/03/21 13:03:40;;;;;;;28.27;23.08;;;;;;;;;;5016314;28;20501;-69
2022/03/21 13:11:39;;;;;;;31.42;22.90;;;;;;;;;;5016238;28;20025;-70
2022/03/21 13:14:14;;;;;;;26.73;21.55;;;;;;;;;;5016604;28;20055;-71
2022/03/21 13:16:45;;;;;;;30.08;22.25;;;;;;;;;;5012889;28;20021;-71
2022/03/21 13:19:14;;;;;;;29.92;22.55;;;;;;;;;;5016516;28;20037;-71
2022/03/21 13:21:41;;;;;;;29.25;22.70;;;;;;;;;;5016352;28;20388;-70
2022/03/21 13:24:09;;;;;;;31.33;22.35;;;;;;;;;;5016564;28;20782;-70
2022/03/21 13:26:35;;;;;;;31.25;23.25;;;;;;;;;;5015270;28;20056;-71
2022/03/21 13:29:10;;;;;;;32.00;23.33;;;;;;;;;;4998908;28;20112;-72
2022/03/21 13:31:36;;;;;;;28.05;21.58;;;;;;;;;;5014736;28;20426;-72
2022/03/21 13:34:07;;;;;;;27.08;21.58;;;;;;;;;;4999283;28;20110;-71
2022/03/21 13:36:42;;;;;;;28.15;21.52;;;;;;;;;;4998738;28;20071;-70
2022/03/21 13:39:15;;;;;;;30.55;21.23;;;;;;;;;;4998740;28;20593;-72
2022/03/21 13:42:00;;;;;;;27.77;20.48;;;;;;;;;;5016068;28;20021;-71
2022/03/21 13:44:38;;;;;;;32.40;22.67;;;;;;;;;;5010634;28;20228;-72
2022/03/21 13:47:14;;;;;;;30.02;20.98;;;;;;;;;;5015446;28;20547;-70
2022/03/21 13:49:55;;;;;;;26.75;19.90;;;;;;;;;;5015203;28;20040;-70
2022/03/21 13:52:43;;;;;;;26.02;19.92;;;;;;;;;;5016330;28;20370;-70
2022/03/21 13:55:10;;;;;;;28.98;19.55;;;;;;;;;;5017254;28;20016;-71
2022/03/21 13:57:45;;;;;;;28.30;19.60;;;;;;;;;;5018975;28;20075;-71
2022/03/21 14:00:11;;;;;;;26.35;20.40;;;;;;;;;;5018320;28;20140;-71
2022/03/21 14:02:41;;;;;;;31.38;21.95;;;;;;;;;;5019981;28;20041;-71
2022/03/21 14:05:12;;;;;;;28.27;21.80;;;;;;;;;;5020135;28;20420;-70
2022/03/21 14:07:37;;;;;;;29.30;21.55;;;;;;;;;;5020602;28;20352;-70
2022/03/21 14:10:19;;;;;;;30.50;22.08;;;;;;;;;;5020027;28;20706;-71
2022/03/21 14:12:49;;;;;;;31.17;21.80;;;;;;;;;;5001847;28;20072;-70
2022/03/21 14:15:15;;;;;;;27.42;19.95;;;;;;;;;;5007422;28;20029;-70
2022/03/21 14:17:41;;;;;;;24.35;18.60;;;;;;;;;;5018899;28;20153;-69
2022/03/21 14:20:07;;;;;;;24.00;18.10;;;;;;;;;;5018473;28;20036;-72
2022/03/21 14:22:32;;;;;;;23.20;17.95;;;;;;;;;;4984509;28;20175;-70
2022/03/21 14:25:00;;;;;;;25.23;19.42;;;;;;;;;;5019242;28;20252;-70
2022/03/21 14:27:25;;;;;;;26.30;18.23;;;;;;;;;;5019588;28;20396;-69
2022/03/21 14:29:53;;;;;;;24.38;18.98;;;;;;;;;;5001362;28;20021;-69
2022/03/21 14:32:21;;;;;;;25.83;18.38;;;;;;;;;;5019462;28;20065;-70
2022/03/21 14:34:47;;;;;;;29.27;20.33;;;;;;;;;;5000971;28;20355;-70
2022/03/21 14:37:12;;;;;;;22.90;17.58;;;;;;;;;;5007035;28;20091;-71
2022/03/21 14:39:37;;;;;;;25.85;19.20;;;;;;;;;;5002532;28;20079;-70
2022/03/21 14:42:03;;;;;;;25.33;18.55;;;;;;;;;;5000788;28;20357;-70
2022/03/21 14:44:28;;;;;;;27.75;19.35;;;;;;;;;;5000926;28;20040;-71
2022/03/21 14:46:55;;;;;;;25.98;19.02;;;;;;;;;;5001110;28;20040;-70